Time;durP1;ratioP1;P1;durP2;ratioP2;P2;SDS_P1;SDS_P2;PMS_P1;PMS_P2;Temp;Humidity;BMP_temperature;BMP_pressure;BME280_temperature;BME280_humidity;BME280_pressure;Samples;Min_cycle;Max_cycle;Signal;HPM_P1;HPM_P2
2022/08/13 00:01:37;;;;;;;3.65;1.95;;;;;;;20.90;48.76;98554.91;4485679;31;20072;-68
2022/08/13 00:04:12;;;;;;;2.90;2.20;;;;;;;20.81;49.08;98563.34;4485775;31;20146;-68
2022/08/13 00:09:27;;;;;;;3.37;2.80;;;;;;;20.71;49.86;98559.25;4485716;32;20394;-68
2022/08/13 00:15:08;;;;;;;2.92;2.58;;;;;;;20.61;50.89;98556.16;4485672;31;20442;-68
2022/08/13 00:17:43;;;;;;;5.72;2.87;;;;;;;20.68;51.02;98557.00;4485676;31;20079;-68
2022/08/13 00:20:38;;;;;;;4.25;2.80;;;;;;;20.70;51.25;98554.16;4485591;31;20084;-68
2022/08/13 00:23:08;;;;;;;7.25;3.33;;;;;;;20.60;51.74;98546.53;4485641;31;20115;-68
2022/08/13 00:25:52;;;;;;;3.65;3.10;;;;;;;20.61;52.01;98542.06;4485850;31;20657;-68
2022/08/13 00:28:28;;;;;;;3.17;2.87;;;;;;;20.60;52.23;98543.06;4485430;31;20080;-68
2022/08/13 00:30:58;;;;;;;4.05;3.35;;;;;;;20.58;52.46;98535.28;4485583;31;20472;-68
2022/08/13 00:33:26;;;;;;;3.87;2.70;;;;;;;20.55;52.79;98546.34;4485557;31;20087;-68
2022/08/13 00:36:14;;;;;;;4.47;3.62;;;;;;;20.57;52.88;98530.97;4485200;32;20433;-68
2022/08/13 00:39:05;;;;;;;7.72;3.47;;;;;;;20.60;53.10;98538.56;4485636;31;20104;-68
2022/08/13 00:41:38;;;;;;;4.35;3.15;;;;;;;20.55;53.50;98530.37;4485402;32;20457;-68
2022/08/13 00:44:28;;;;;;;6.95;3.72;;;;;;;20.53;53.76;98527.09;4485690;31;20412;-68
2022/08/13 00:49:47;;;;;;;5.00;3.50;;;;;;;20.59;53.92;98533.44;4485480;31;20539;-68
2022/08/13 00:52:31;;;;;;;5.00;3.62;;;;;;;20.58;54.28;98535.28;4485519;31;20145;-68
2022/08/13 00:55:01;;;;;;;7.25;4.28;;;;;;;20.63;54.34;98532.00;4485402;31;20088;-68
2022/08/13 00:57:29;;;;;;;4.62;3.60;;;;;;;20.58;54.85;98522.00;4485189;31;20096;-68
2022/08/13 01:00:06;;;;;;;5.03;4.12;;;;;;;20.61;55.01;98526.91;4485426;31;20179;-68
2022/08/13 01:02:49;;;;;;;9.65;4.60;;;;;;;20.61;55.25;98520.75;4485590;31;20108;-68
2022/08/13 01:05:24;;;;;;;4.90;4.03;;;;;;;20.57;55.73;98528.31;4485463;31;20135;-68
2022/08/13 01:07:56;;;;;;;5.10;4.03;;;;;;;20.57;56.05;98525.66;4484993;31;20088;-68
2022/08/13 01:10:25;;;;;;;5.87;4.45;;;;;;;20.59;56.24;98526.28;4483955;32;20100;-68
2022/08/13 01:12:54;;;;;;;7.32;4.55;;;;;;;20.60;56.48;98519.91;4485060;32;20108;-68
2022/08/13 01:15:23;;;;;;;6.72;5.25;;;;;;;20.62;56.64;98515.22;4485496;32;20076;-68
2022/08/13 01:18:15;;;;;;;10.70;6.55;;;;;;;20.59;57.02;98518.31;4484511;31;20088;-68
2022/08/13 01:20:45;;;;;;;8.80;5.35;;;;;;;20.60;57.39;98516.47;4485377;31;20088;-68
2022/08/13 01:23:15;;;;;;;8.13;5.10;;;;;;;20.63;57.44;98511.53;4485255;31;20096;-68
2022/08/13 01:25:44;;;;;;;9.00;5.70;;;;;;;20.57;57.86;98512.34;4485225;31;20115;-68
2022/08/13 01:28:27;;;;;;;7.55;5.78;;;;;;;20.59;57.67;98507.66;4484833;31;20158;-68
2022/08/13 01:30:57;;;;;;;9.02;5.93;;;;;;;20.64;57.83;98509.69;4485026;32;20144;-68
2022/08/13 01:33:24;;;;;;;7.78;5.53;;;;;;;20.66;58.05;98505.00;4485069;31;20509;-68
2022/08/13 01:36:06;;;;;;;8.98;5.30;;;;;;;20.63;58.24;98508.06;4484759;31;20072;-68
2022/08/13 01:38:44;;;;;;;9.02;5.40;;;;;;;20.65;58.23;98509.53;4469166;32;20411;-68
2022/08/13 01:41:11;;;;;;;7.07;5.07;;;;;;;20.61;58.57;98508.25;4469538;32;20436;-68
2022/08/13 01:43:43;;;;;;;8.98;5.45;;;;;;;20.60;58.70;98503.94;4469243;32;20145;-68
2022/08/13 01:46:11;;;;;;;6.20;5.22;;;;;;;20.59;58.87;98498.84;4468106;32;20148;-68
2022/08/13 01:51:36;;;;;;;8.10;4.75;;;;;;;20.60;58.98;98506.63;4469393;32;20088;-68
2022/08/13 01:54:11;;;;;;;6.55;4.62;;;;;;;20.62;58.96;98504.59;4469320;32;20092;-68
2022/08/13 01:57:05;;;;;;;6.45;5.10;;;;;;;20.62;58.66;98504.59;4469530;32;20073;-69
2022/08/13 01:59:37;;;;;;;6.43;4.95;;;;;;;20.66;58.44;98499.69;4469223;32;20092;-68
2022/08/13 02:02:27;;;;;;;6.45;5.05;;;;;;;20.68;58.35;98505.59;4468955;32;20585;-68
2022/08/13 02:05:11;;;;;;;7.00;4.82;;;;;;;20.68;58.21;98503.78;4469947;32;20111;-69
2022/08/13 02:08:00;;;;;;;5.85;4.70;;;;;;;20.68;58.25;98506.44;4484443;31;20155;-68
2022/08/13 02:10:37;;;;;;;7.62;5.22;;;;;;;20.70;58.37;98498.25;4484596;31;20100;-68
2022/08/13 02:13:09;;;;;;;6.05;4.75;;;;;;;20.66;58.41;98500.50;4484618;31;20088;-68
2022/08/13 02:15:45;;;;;;;6.55;5.07;;;;;;;20.64;58.53;98501.72;4484655;32;20085;-68
2022/08/13 02:18:19;;;;;;;8.43;5.30;;;;;;;20.65;58.73;98493.53;4484319;31;20700;-68
2022/08/13 02:20:53;;;;;;;6.45;4.60;;;;;;;20.63;58.95;98492.87;4484608;31;20503;-68
2022/08/13 02:23:27;;;;;;;7.72;5.05;;;;;;;20.54;59.33;98494.16;4484218;31;20092;-68
2022/08/13 02:26:17;;;;;;;6.82;5.40;;;;;;;20.59;59.34;98488.19;4484779;32;20473;-68
2022/08/13 02:28:44;;;;;;;9.25;5.30;;;;;;;20.60;59.10;98487.19;4484517;31;20143;-68
2022/08/13 02:31:18;;;;;;;6.62;4.78;;;;;;;20.67;58.87;98483.50;4486253;31;20397;-68
2022/08/13 02:34:05;;;;;;;6.55;5.37;;;;;;;20.67;58.66;98488.00;4486332;32;20076;-68
2022/08/13 02:36:40;;;;;;;6.20;5.05;;;;;;;20.67;58.60;98486.16;4486411;31;20092;-68
2022/08/13 02:39:13;;;;;;;7.37;5.10;;;;;;;20.72;58.36;98486.34;4485992;31;20080;-68
2022/08/13 02:41:43;;;;;;;6.70;4.78;;;;;;;20.72;58.35;98488.19;4486285;32;20108;-68
2022/08/13 02:44:18;;;;;;;8.43;5.30;;;;;;;20.72;58.42;98483.69;4486167;31;20171;-68
2022/08/13 02:46:50;;;;;;;7.03;5.37;;;;;;;20.69;58.45;98484.09;4486260;31;20119;-68
2022/08/13 02:49:21;;;;;;;9.52;5.70;;;;;;;20.76;58.29;98483.25;4484538;32;20076;-68
2022/08/13 02:51:56;;;;;;;6.75;5.03;;;;;;;20.78;58.14;98482.03;4486352;32;20153;-68
2022/08/13 02:54:33;;;;;;;8.95;5.75;;;;;;;20.80;58.11;98473.81;4486115;31;20110;-68
2022/08/13 02:57:02;;;;;;;7.07;5.62;;;;;;;20.73;58.39;98474.66;4486293;31;20123;-68
2022/08/13 02:59:30;;;;;;;10.65;5.55;;;;;;;20.70;58.44;98477.75;4485823;31;20159;-68
2022/08/13 03:02:18;;;;;;;6.47;4.97;;;;;;;20.76;58.33;98472.59;4486289;31;20088;-68
2022/08/13 03:04:47;;;;;;;6.43;5.50;;;;;;;20.73;58.26;98469.34;4485942;31;20096;-68
2022/08/13 03:07:14;;;;;;;8.00;5.37;;;;;;;20.72;58.32;98470.38;4485838;31;20100;-68
2022/08/13 03:09:41;;;;;;;8.70;5.65;;;;;;;20.70;58.32;98467.09;4486106;31;20097;-68
2022/08/13 03:12:13;;;;;;;9.00;6.05;;;;;;;20.70;58.42;98475.09;4484813;32;20155;-68
2022/08/13 03:14:43;;;;;;;7.35;5.30;;;;;;;20.66;58.68;98471.22;4485842;31;20115;-68
2022/08/13 03:17:15;;;;;;;7.23;5.60;;;;;;;20.63;58.83;98468.13;4486116;31;20089;-68
2022/08/13 03:19:51;;;;;;;8.18;5.57;;;;;;;20.63;59.01;98468.13;4485944;31;20152;-68
2022/08/13 03:22:25;;;;;;;8.05;5.72;;;;;;;20.54;59.57;98459.56;4485883;32;20123;-68
2022/08/13 03:24:54;;;;;;;7.57;5.47;;;;;;;20.51;59.72;98470.63;4486002;31;20100;-68
2022/08/13 03:27:22;;;;;;;7.07;5.25;;;;;;;20.49;59.89;98462.84;4485899;31;20096;-68
2022/08/13 03:29:53;;;;;;;8.00;6.28;;;;;;;20.43;60.30;98465.53;4485772;31;20169;-68
2022/08/13 03:32:41;;;;;;;7.95;6.15;;;;;;;21.09;58.81;98464.50;4486210;31;20084;-68
2022/08/13 03:35:18;;;;;;;7.87;6.10;;;;;;;20.30;60.73;98458.38;4485796;31;20107;-68
2022/08/13 03:38:10;;;;;;;9.70;5.80;;;;;;;20.25;60.98;98460.84;4485852;31;20389;-68
2022/08/13 03:43:24;;;;;;;7.35;5.80;;;;;;;20.13;61.70;98458.81;4486075;31;20092;-68
2022/08/13 03:45:52;;;;;;;7.97;5.80;;;;;;;20.14;61.83;98459.66;4485576;31;20606;-68
2022/08/13 03:48:24;;;;;;;9.63;5.55;;;;;;;20.07;62.29;98454.31;4486021;31;20108;-68
2022/08/13 03:50:52;;;;;;;10.52;6.97;;;;;;;20.06;62.39;98458.03;4485534;31;20110;-68
2022/08/13 03:53:22;;;;;;;7.40;6.03;;;;;;;20.05;62.52;98453.72;4485951;31;20088;-68
2022/08/13 03:56:09;;;;;;;15.85;6.00;;;;;;;19.95;62.91;98458.62;4485707;31;20115;-68
2022/08/13 03:58:39;;;;;;;7.30;5.43;;;;;;;19.90;63.23;98455.78;4485824;31;20106;-68
2022/08/13 04:01:07;;;;;;;9.52;5.82;;;;;;;19.88;63.52;98453.31;4485597;31;20156;-68
2022/08/13 04:03:40;;;;;;;7.10;5.62;;;;;;;19.77;64.10;98454.75;4485726;32;20135;-68
2022/08/13 04:06:16;;;;;;;8.20;5.73;;;;;;;19.82;63.96;98454.16;4485784;32;20449;-68
2022/08/13 04:08:46;;;;;;;9.38;5.70;;;;;;;19.81;64.10;98452.50;4485769;31;20417;-68
2022/08/13 04:11:17;;;;;;;7.87;6.15;;;;;;;20.29;62.90;98457.56;4485531;31;20088;-68
2022/08/13 04:13:47;;;;;;;9.75;6.18;;;;;;;20.41;62.50;98449.78;4485842;31;20084;-68
2022/08/13 04:16:27;;;;;;;12.15;5.50;;;;;;;20.33;62.55;98447.31;4485748;31;20106;-68
2022/08/13 04:19:00;;;;;;;7.28;5.43;;;;;;;20.33;62.59;98448.16;4486086;31;20137;-68
2022/08/13 04:21:33;;;;;;;8.30;6.10;;;;;;;20.34;62.59;98449.78;4485517;31;20077;-68
2022/08/13 04:24:04;;;;;;;9.80;5.95;;;;;;;20.40;62.40;98456.09;4485826;31;20104;-68
2022/08/13 04:26:38;;;;;;;10.55;5.85;;;;;;;20.44;62.18;98452.00;4485642;31;20651;-68
2022/08/13 04:29:10;;;;;;;8.25;6.00;;;;;;;20.44;62.57;98451.19;4485551;32;20084;-68
2022/08/13 04:31:37;;;;;;;8.50;6.22;;;;;;;20.42;62.82;98451.38;4485370;31;20084;-68
2022/08/13 04:34:19;;;;;;;10.88;5.47;;;;;;;20.47;62.93;98453.41;4485572;31;20503;-68
2022/08/13 04:37:08;;;;;;;7.53;5.70;;;;;;;20.59;62.66;98440.28;4485473;31;20463;-68
2022/08/13 04:39:52;;;;;;;7.20;5.45;;;;;;;20.78;62.03;98449.28;4485621;31;20088;-68
2022/08/13 04:42:47;;;;;;;10.88;6.18;;;;;;;20.80;61.24;98444.53;4485280;32;20464;-68
2022/08/13 04:45:17;;;;;;;8.00;5.82;;;;;;;20.85;60.56;98450.88;4485413;31;20123;-68
2022/08/13 04:47:49;;;;;;;;;;;;;;;20.94;60.58;98443.47;4485786;31;20152;-68
2022/08/13 04:50:17;;;;;;;10.25;6.10;;;;;;;20.95;60.35;98444.28;4485311;31;19971;-68
2022/08/13 04:52:45;;;;;;;11.25;6.28;;;;;;;20.94;60.39;98438.16;4484233;32;20108;-68
2022/08/13 04:55:16;;;;;;;7.57;5.90;;;;;;;21.00;60.44;98445.28;4485508;31;20100;-68
2022/08/13 04:57:44;;;;;;;6.43;5.37;;;;;;;20.98;60.55;98444.66;4485274;31;20135;-68
2022/08/13 05:00:32;;;;;;;7.45;5.80;;;;;;;21.04;60.61;98441.13;4485635;31;20084;-68
2022/08/13 05:03:14;;;;;;;8.13;5.78;;;;;;;21.32;59.58;98445.31;4485321;31;20115;-68
2022/08/13 05:05:46;;;;;;;9.20;5.57;;;;;;;21.48;58.85;98443.16;4484941;31;20096;-68
2022/08/13 05:08:15;;;;;;;18.08;6.40;;;;;;;21.47;58.80;98445.00;4485088;31;20101;-68
2022/08/13 05:10:46;;;;;;;8.15;6.00;;;;;;;21.55;59.05;98443.97;4485106;31;20143;-68
2022/08/13 05:13:25;;;;;;;7.53;5.57;;;;;;;21.56;59.05;98445.56;4485248;31;20106;-68
2022/08/13 05:15:58;;;;;;;8.82;5.95;;;;;;;21.73;58.79;98446.69;4485339;31;20085;-68
2022/08/13 05:18:30;;;;;;;10.23;5.60;;;;;;;21.84;58.36;98444.34;4485411;31;20084;-68
2022/08/13 05:21:00;;;;;;;9.50;6.22;;;;;;;21.94;57.67;98444.66;4485064;31;20092;-68
2022/08/13 05:23:34;;;;;;;7.53;5.95;;;;;;;22.10;57.38;98451.28;4485060;31;20096;-68
2022/08/13 05:26:29;;;;;;;8.30;6.12;;;;;;;22.17;57.21;98446.72;4485059;31;20084;-68
2022/08/13 05:29:17;;;;;;;10.43;6.62;;;;;;;22.33;56.34;98451.50;4485325;31;20114;-68
2022/08/13 05:31:44;;;;;;;8.70;6.00;;;;;;;22.47;55.93;98441.50;4484811;31;20092;-68
2022/08/13 05:34:25;;;;;;;8.10;6.03;;;;;;;22.86;54.75;98443.91;4485185;31;20125;-68
2022/08/13 05:36:54;;;;;;;10.32;5.87;;;;;;;23.06;54.24;98459.69;4484849;31;20092;-68
2022/08/13 05:39:44;;;;;;;8.48;6.60;;;;;;;22.85;54.46;98453.78;4485190;32;20119;-68
2022/08/13 05:42:18;;;;;;;8.03;6.10;;;;;;;22.81;54.34;98451.78;4484773;31;20144;-68
2022/08/13 05:44:56;;;;;;;10.75;6.25;;;;;;;22.76;54.26;98455.13;4484132;32;20092;-68
2022/08/13 05:47:24;;;;;;;10.98;6.18;;;;;;;22.78;54.21;98446.91;4484788;31;20502;-68
2022/08/13 05:49:53;;;;;;;8.35;6.03;;;;;;;22.71;54.94;98446.16;4484904;31;20138;-68
2022/08/13 05:52:27;;;;;;;12.20;6.05;;;;;;;22.80;54.55;98444.81;4484633;31;20084;-68
2022/08/13 05:55:06;;;;;;;8.10;6.03;;;;;;;22.77;54.87;98442.59;4484964;31;20106;-68
2022/08/13 05:57:54;;;;;;;10.98;7.00;;;;;;;22.79;54.61;98452.00;4484916;31;20089;-68
2022/08/13 06:06:28;;;;;;;9.35;6.37;;;;;;;23.09;53.92;98451.25;4450616;32;20634;-68
2022/08/13 06:09:03;;;;;;;10.23;6.50;;;;;;;23.18;53.46;98443.72;4450959;32;20128;-68
2022/08/13 06:11:38;;;;;;;9.57;6.10;;;;;;;23.29;53.13;98453.66;4450780;32;20244;-68
2022/08/13 06:14:26;;;;;;;8.75;6.28;;;;;;;23.48;53.08;98450.91;4450924;32;20220;-68
2022/08/13 06:16:59;;;;;;;10.23;6.20;;;;;;;23.44;52.73;98455.91;4450827;32;20248;-68
2022/08/13 06:19:29;;;;;;;9.95;6.00;;;;;;;23.77;52.64;98459.09;4450784;32;20517;-68
2022/08/13 06:22:02;;;;;;;9.40;6.28;;;;;;;23.89;51.68;98462.63;4450841;32;20113;-68
2022/08/13 06:24:32;;;;;;;7.37;5.87;;;;;;;24.15;51.36;98474.75;4450968;32;20139;-68
2022/08/13 06:27:04;;;;;;;8.95;5.82;;;;;;;24.48;51.18;98488.59;4450542;32;20150;-68
2022/08/13 06:29:45;;;;;;;9.63;6.78;;;;;;;24.68;50.25;98494.41;4450782;32;20124;-68
2022/08/13 06:32:23;;;;;;;12.45;6.00;;;;;;;24.72;50.41;98500.13;4438456;32;20130;-68
2022/08/13 06:35:11;;;;;;;8.80;6.62;;;;;;;24.86;50.12;98498.81;4450505;32;20100;-68
2022/08/13 06:37:43;;;;;;;13.32;6.68;;;;;;;24.80;50.97;98497.09;4450207;32;20189;-68
2022/08/13 06:40:21;;;;;;;7.53;6.10;;;;;;;24.98;50.61;98490.72;4450544;32;20108;-68
2022/08/13 06:43:00;;;;;;;9.40;6.25;;;;;;;24.83;50.05;98482.38;4483852;32;20096;-68
2022/08/13 06:45:29;;;;;;;11.65;6.05;;;;;;;24.85;50.40;98485.66;4484575;31;20099;-68
2022/08/13 06:48:01;;;;;;;9.93;6.05;;;;;;;25.04;49.85;98491.63;4484359;31;20484;-68
2022/08/13 06:50:34;;;;;;;7.47;6.15;;;;;;;25.04;50.16;98488.97;4484208;31;20423;-68
2022/08/13 06:53:11;;;;;;;9.70;7.00;;;;;;;25.09;49.38;98489.06;4483980;31;20092;-68
2022/08/13 06:55:59;;;;;;;9.23;5.78;;;;;;;25.26;49.78;98492.59;4484120;31;20155;-68
2022/08/13 06:58:48;;;;;;;10.75;6.93;;;;;;;25.21;49.22;98489.84;4482885;32;20080;-68
2022/08/13 07:01:24;;;;;;;7.75;6.03;;;;;;;25.06;49.23;98484.19;4483982;31;20113;-69
2022/08/13 07:03:53;;;;;;;12.10;6.95;;;;;;;25.02;49.03;98475.81;4483763;31;20442;-68
2022/08/13 07:06:27;;;;;;;8.38;6.80;;;;;;;24.85;49.01;98483.78;4483565;32;20126;-69
2022/08/13 07:08:57;;;;;;;12.57;6.93;;;;;;;24.88;49.94;98480.62;4483850;31;20080;-68
2022/08/13 07:11:27;;;;;;;7.25;6.28;;;;;;;25.08;49.97;98484.75;4483726;31;20115;-69
2022/08/13 07:14:05;;;;;;;11.20;6.57;;;;;;;25.30;49.78;98493.00;4483667;31;20141;-68
2022/08/13 07:16:40;;;;;;;8.27;6.43;;;;;;;25.53;49.04;98489.38;4485438;31;20140;-69
2022/08/13 07:19:12;;;;;;;10.05;6.82;;;;;;;25.58;48.34;98488.66;4486192;31;20114;-68
2022/08/13 07:21:44;;;;;;;8.10;6.12;;;;;;;25.81;47.43;98490.38;4486200;32;20143;-68
2022/08/13 07:24:12;;;;;;;9.20;6.53;;;;;;;25.75;48.23;98477.94;4485814;32;20092;-68
2022/08/13 07:27:04;;;;;;;9.80;6.43;;;;;;;26.03;46.59;98479.75;4486094;31;20132;-68
2022/08/13 07:29:34;;;;;;;8.90;5.87;;;;;;;25.91;46.67;98479.00;4486105;32;20072;-68
2022/08/13 07:32:18;;;;;;;12.50;7.00;;;;;;;26.21;46.78;98482.16;4485905;31;20089;-69
2022/08/13 07:34:47;;;;;;;9.38;6.45;;;;;;;26.46;45.80;98480.91;4486183;31;20157;-69
2022/08/13 07:37:22;;;;;;;11.55;6.32;;;;;;;26.85;45.42;98485.47;4485615;31;20242;-68
2022/08/13 07:39:53;;;;;;;8.00;6.82;;;;;;;26.82;45.45;98481.38;4485887;31;20084;-69
2022/08/13 07:42:23;;;;;;;9.48;6.70;;;;;;;26.73;45.28;98478.31;4485827;31;20162;-69
2022/08/13 07:44:59;;;;;;;8.15;5.90;;;;;;;26.83;45.09;98483.03;4485836;32;20111;-68
2022/08/13 07:47:50;;;;;;;7.45;6.55;;;;;;;26.96;44.46;98479.13;4485866;32;20102;-68
2022/08/13 07:50:38;;;;;;;8.00;6.55;;;;;;;26.96;44.04;98487.19;4484964;32;20095;-69
2022/08/13 07:53:09;;;;;;;12.27;7.40;;;;;;;27.04;43.44;98484.06;4485745;31;20541;-68
2022/08/13 07:55:43;;;;;;;8.07;6.60;;;;;;;27.12;43.58;98477.44;4486081;31;20115;-68
2022/08/13 07:58:34;;;;;;;8.57;7.15;;;;;;;26.82;43.95;98475.22;4485604;31;20119;-69
2022/08/13 08:01:05;;;;;;;11.00;7.10;;;;;;;26.32;45.19;98467.00;4485723;31;20464;-68
2022/08/13 08:03:40;;;;;;;8.90;6.60;;;;;;;26.61;44.66;98466.03;4485615;31;20127;-69
2022/08/13 08:06:20;;;;;;;8.45;6.78;;;;;;;26.89;44.39;98465.88;4485517;31;20096;-69
2022/08/13 08:08:57;;;;;;;11.65;8.23;;;;;;;27.12;43.89;98464.00;4485650;32;20080;-69
2022/08/13 08:14:25;;;;;;;8.23;6.90;;;;;;;27.28;44.13;98475.69;4485645;31;20088;-69
2022/08/13 08:17:01;;;;;;;13.15;6.47;;;;;;;27.49;43.13;98473.25;4485820;31;20525;-69
2022/08/13 08:19:50;;;;;;;10.57;6.50;;;;;;;27.65;44.11;98469.63;4485657;31;20088;-69
2022/08/13 08:22:42;;;;;;;14.05;6.87;;;;;;;27.89;43.63;98462.00;4485584;31;20076;-68
2022/08/13 08:25:16;;;;;;;8.68;6.72;;;;;;;27.60;44.22;98470.41;4485537;31;20089;-69
2022/08/13 08:27:50;;;;;;;9.88;6.55;;;;;;;27.80;43.66;98464.38;4485634;31;20688;-69
2022/08/13 08:30:37;;;;;;;10.00;6.80;;;;;;;27.75;43.80;98469.72;4485516;31;20111;-69
2022/08/13 08:33:26;;;;;;;10.52;7.15;;;;;;;27.75;42.94;98472.41;4485567;31;20201;-68
2022/08/13 08:36:14;;;;;;;11.07;7.22;;;;;;;27.99;42.25;98461.28;4485145;31;20406;-68
2022/08/13 08:44:42;;;;;;;14.82;7.20;;;;;;;27.64;43.08;98459.94;4484637;32;20137;-68
2022/08/13 08:47:11;;;;;;;11.40;6.40;;;;;;;27.98;42.79;98454.31;4485486;31;20155;-69
2022/08/13 08:49:41;;;;;;;8.98;6.93;;;;;;;27.96;41.78;98448.34;4485334;31;20088;-69
2022/08/13 08:52:12;;;;;;;7.65;6.72;;;;;;;27.61;42.95;98455.06;4485297;32;20103;-68
2022/08/13 08:54:45;;;;;;;8.75;6.93;;;;;;;28.04;42.15;98447.88;4485310;31;20123;-69
2022/08/13 08:57:18;;;;;;;7.80;6.40;;;;;;;28.14;41.53;98442.53;4485433;32;20092;-69
2022/08/13 08:59:48;;;;;;;7.65;6.75;;;;;;;28.51;40.98;98440.88;4484157;32;20123;-69
2022/08/13 09:02:24;;;;;;;9.38;6.82;;;;;;;28.31;41.40;98452.34;4485396;31;20441;-69
2022/08/13 09:04:54;;;;;;;8.45;7.12;;;;;;;28.78;40.45;98453.37;4485071;31;20072;-69
2022/08/13 09:07:29;;;;;;;12.95;7.15;;;;;;;28.79;40.17;98449.62;4485090;31;20123;-69
2022/08/13 09:09:58;;;;;;;9.45;7.43;;;;;;;29.13;40.77;98446.47;4485508;31;20172;-69
2022/08/13 09:12:27;;;;;;;7.80;6.93;;;;;;;28.78;39.77;98442.59;4485157;31;20096;-69
2022/08/13 09:14:57;;;;;;;8.52;7.45;;;;;;;28.29;40.54;98438.31;4483946;32;20092;-69
2022/08/13 09:17:26;;;;;;;8.25;7.18;;;;;;;28.38;41.73;98435.94;4445254;31;1282755;-69
2022/08/13 09:20:12;;;;;;;8.98;7.15;;;;;;;28.76;40.25;98440.19;4485244;31;20092;-69
2022/08/13 09:23:06;;;;;;;11.30;8.60;;;;;;;29.03;39.37;98437.28;4485058;31;20114;-69
2022/08/13 09:25:51;;;;;;;8.00;6.70;;;;;;;29.77;39.40;98428.19;4485022;32;20128;-69
2022/08/13 09:28:26;;;;;;;8.27;6.57;;;;;;;29.90;37.76;98427.66;4485144;31;20156;-69
2022/08/13 09:31:04;;;;;;;9.48;7.28;;;;;;;30.00;37.89;98424.16;4485196;32;20103;-69
2022/08/13 09:33:45;;;;;;;8.25;6.80;;;;;;;29.58;37.70;98419.84;4485326;31;20084;-69
2022/08/13 09:36:27;;;;;;;12.70;7.30;;;;;;;28.81;39.03;98424.03;4484836;32;20398;-69
2022/08/13 09:38:55;;;;;;;7.65;6.50;;;;;;;28.95;39.12;98420.81;4483178;32;20433;-69
2022/08/13 09:41:35;;;;;;;8.50;7.37;;;;;;;29.53;38.21;98420.66;4484885;31;20474;-69
2022/08/13 09:44:04;;;;;;;8.63;6.65;;;;;;;29.72;37.67;98415.50;4484971;31;20076;-69
2022/08/13 09:46:45;;;;;;;12.75;6.57;;;;;;;29.22;37.22;98414.41;4484874;31;20133;-69
2022/08/13 09:49:23;;;;;;;10.48;6.78;;;;;;;29.45;36.67;98411.22;4485065;31;20093;-69
2022/08/13 09:52:04;;;;;;;10.65;6.65;;;;;;;29.60;37.27;98406.88;4483748;32;20084;-69
2022/08/13 09:54:47;;;;;;;8.55;6.93;;;;;;;30.24;36.72;98406.25;4484862;31;20088;-69
2022/08/13 09:57:20;;;;;;;8.90;6.45;;;;;;;29.95;36.93;98408.78;4484864;31;20080;-69
2022/08/13 09:59:50;;;;;;;7.35;6.37;;;;;;;29.52;37.69;98408.22;4484640;31;20088;-69
2022/08/13 10:02:24;;;;;;;7.87;6.37;;;;;;;29.41;37.32;98410.13;4484862;31;20080;-69
2022/08/13 10:04:57;;;;;;;8.27;6.03;;;;;;;29.90;36.33;98404.19;4484683;31;20156;-69
2022/08/13 10:07:24;;;;;;;10.70;6.40;;;;;;;29.69;36.87;98405.25;4484335;31;20149;-69
2022/08/13 10:09:51;;;;;;;8.05;6.50;;;;;;;29.82;36.25;98404.72;4484548;31;20124;-69
2022/08/13 10:12:40;;;;;;;7.80;6.12;;;;;;;29.00;37.49;98405.44;4484678;31;20083;-69
2022/08/13 10:15:12;;;;;;;11.05;6.85;;;;;;;28.90;37.62;98405.44;4484474;31;20112;-69
2022/08/13 10:17:58;;;;;;;7.87;6.65;;;;;;;28.86;37.40;98398.97;4484638;32;20073;-69
2022/08/13 10:20:32;;;;;;;8.55;6.12;;;;;;;28.31;38.66;98401.16;4484836;32;20111;-69
2022/08/13 10:23:01;;;;;;;8.15;6.12;;;;;;;29.03;37.77;98402.22;4484412;31;20101;-69
2022/08/13 10:25:29;;;;;;;7.90;6.70;;;;;;;29.70;36.57;98390.69;4484505;31;20088;-68
2022/08/13 10:28:34;;;;;;;8.30;6.30;;;;;;;29.33;36.55;98397.19;4484434;31;20084;-69
2022/08/13 10:31:07;;;;;;;9.60;5.85;;;;;;;29.64;36.31;98391.75;4484292;31;20084;-69
2022/08/13 10:33:55;;;;;;;7.18;5.80;;;;;;;29.52;36.19;98387.47;4484472;31;20492;-69
2022/08/13 10:36:26;;;;;;;7.20;6.30;;;;;;;29.73;35.97;98392.81;4483721;32;20182;-69
2022/08/13 10:39:05;;;;;;;7.60;6.00;;;;;;;29.73;35.88;98390.13;4484507;31;20084;-69
2022/08/13 10:41:44;;;;;;;7.05;5.97;;;;;;;29.65;36.09;98388.00;4484195;31;20156;-69
2022/08/13 10:44:30;;;;;;;6.90;6.20;;;;;;;29.66;36.20;98387.72;4484319;31;20097;-69
2022/08/13 10:46:59;;;;;;;7.87;6.20;;;;;;;29.95;35.14;98391.72;4484107;31;20106;-69
2022/08/13 10:49:29;;;;;;;10.07;6.03;;;;;;;29.89;35.08;98394.47;4484155;31;20119;-69
2022/08/13 10:52:00;;;;;;;10.53;6.30;;;;;;;30.42;34.27;98382.44;4485842;31;20158;-69
2022/08/13 10:54:33;;;;;;;7.53;5.43;;;;;;;30.97;33.08;98385.13;4486301;31;20394;-69
2022/08/13 10:57:06;;;;;;;7.47;5.30;;;;;;;30.80;32.41;98380.09;4486206;31;20126;-69
2022/08/13 10:59:45;;;;;;;6.00;5.18;;;;;;;30.62;32.52;98386.94;4486269;31;20208;-69
2022/08/13 11:02:13;;;;;;;10.05;5.32;;;;;;;30.65;32.44;98380.19;4486101;31;20080;-69
2022/08/13 11:04:46;;;;;;;8.35;5.00;;;;;;;30.48;32.51;98377.81;4486298;31;20110;-69
2022/08/13 11:07:20;;;;;;;5.65;5.12;;;;;;;30.43;32.61;98376.75;4485642;31;20512;-69
2022/08/13 11:09:48;;;;;;;6.25;4.82;;;;;;;30.56;32.51;98380.75;4485955;31;20145;-69
2022/08/13 11:12:18;;;;;;;5.20;4.53;;;;;;;30.76;31.88;98373.62;4486162;31;20100;-69
2022/08/13 11:14:50;;;;;;;;;;;;;;;30.44;31.80;98369.44;4486565;31;20100;-69
2022/08/13 11:17:19;;;;;;;6.35;4.95;;;;;;;30.53;31.83;98375.09;4486023;31;19988;-69
2022/08/13 11:20:13;;;;;;;4.47;4.07;;;;;;;30.29;32.16;98372.19;4486166;31;20477;-69
2022/08/13 11:22:50;;;;;;;6.75;4.43;;;;;;;30.25;30.45;98370.03;4485933;31;20120;-69
2022/08/13 11:25:18;;;;;;;6.47;4.72;;;;;;;30.73;30.42;98363.34;4486157;32;20164;-69
2022/08/13 11:28:12;;;;;;;6.95;4.20;;;;;;;30.99;30.48;98364.03;4485829;31;20200;-69
2022/08/13 11:30:49;;;;;;;4.45;4.03;;;;;;;30.78;30.65;98355.19;4485957;31;20081;-69
2022/08/13 11:33:22;;;;;;;7.37;4.50;;;;;;;30.42;31.48;98358.12;4485981;32;20080;-69
2022/08/13 11:36:09;;;;;;;5.50;4.45;;;;;;;30.15;31.51;98355.78;4475547;31;20100;-69
2022/08/13 11:38:39;;;;;;;4.78;4.28;;;;;;;30.42;31.00;98364.31;4470167;32;20080;-69
2022/08/13 11:41:07;;;;;;;6.78;4.90;;;;;;;31.04;30.28;98352.34;4470098;32;20154;-69
2022/08/13 11:43:44;;;;;;;12.27;4.72;;;;;;;30.46;31.86;98361.06;4470325;32;20146;-69
2022/08/13 11:46:23;;;;;;;4.87;4.35;;;;;;;30.40;31.91;98347.59;4470028;32;20427;-69
2022/08/13 11:48:51;;;;;;;8.68;4.80;;;;;;;30.48;31.59;98356.19;4470233;32;20454;-69
2022/08/13 11:51:34;;;;;;;;;;;;;;;30.59;31.32;98345.03;4470231;32;20064;-69
2022/08/13 11:54:20;;;;;;;5.32;4.80;;;;;;;31.01;30.43;98351.03;4470109;32;20021;-69
2022/08/13 11:57:06;;;;;;;5.60;4.30;;;;;;;30.61;30.16;98350.16;4470098;32;20110;-69
2022/08/13 11:59:35;;;;;;;5.53;4.80;;;;;;;31.27;29.40;98351.62;4470153;32;20111;-69
2022/08/13 12:02:11;;;;;;;8.07;4.43;;;;;;;31.25;30.22;98348.41;4469699;32;20100;-69
2022/08/13 12:04:43;;;;;;;10.20;4.10;;;;;;;31.40;29.83;98350.19;4470229;32;20627;-69
2022/08/13 12:07:22;;;;;;;6.80;4.45;;;;;;;31.93;28.76;98343.19;4484396;32;20135;-69
2022/08/13 12:09:50;;;;;;;6.15;4.15;;;;;;;31.38;29.70;98351.56;4485584;31;20119;-69
2022/08/13 12:12:23;;;;;;;5.47;4.50;;;;;;;31.13;29.81;98345.28;4485556;31;20434;-69
2022/08/13 12:14:59;;;;;;;5.53;4.35;;;;;;;31.28;29.40;98352.44;4485774;31;20443;-69
2022/08/13 12:17:27;;;;;;;4.62;3.90;;;;;;;31.31;28.81;98344.56;4485620;32;20119;-69
2022/08/13 12:20:18;;;;;;;5.82;3.75;;;;;;;30.61;29.36;98339.34;4485573;31;20079;-69
2022/08/13 12:22:51;;;;;;;5.15;4.60;;;;;;;30.97;28.67;98336.41;4485477;31;20088;-69
2022/08/13 12:25:23;;;;;;;7.68;4.28;;;;;;;31.34;29.32;98331.56;4485839;31;20080;-69
2022/08/13 12:28:11;;;;;;;7.75;4.55;;;;;;;31.17;29.36;98329.28;4485403;31;20096;-69
2022/08/13 12:30:49;;;;;;;6.50;4.82;;;;;;;32.13;27.94;98317.75;4485664;31;20090;-69
2022/08/13 12:33:17;;;;;;;6.00;3.80;;;;;;;32.52;28.15;98316.72;4485647;31;20084;-69
2022/08/13 12:35:50;;;;;;;8.15;4.32;;;;;;;32.70;27.64;98320.56;4485353;31;20131;-69
2022/08/13 12:38:25;;;;;;;5.12;4.35;;;;;;;32.40;28.52;98309.00;4485178;31;20575;-69
2022/08/13 12:40:58;;;;;;;5.18;4.22;;;;;;;32.28;28.88;98306.75;4485489;32;20461;-69